Estación meteorológica de Cercs - La Baells (Berguedà, Cercs)

Consulta los datos en tiempo real de la estación meteorológica de Cercs - La Baells





Hora UTC 07:45
Temperatura 8.6 ºC
Humedad 83.7 %
Presión 1010.2 hPa
Pluja 0.0 mm
Velocidad viento 0.1 km/h
Dirección viento S

Datos diarios 2026-05-06



Hora UTC (invierno +1h; verano +2h)
DADES NO VALIDADES
Temperatura (ºC) Humedad (%) Presión (hPa) Velocidad viento (km/h) Precipitación (mm)
Hora UTC Aire Humedad Presión Vel. Dir. Vel. Max Dir. Intent. máx 5 min.
00:05 8.0 92.9 1010.2 0.1 SW 0.2 WSW 0.0
00:10 7.8 93.5 1010.2 0.1 S 0.2 WSW 0.0
00:15 7.7 93.6 1010.2 0.1 S 0.2 WSW 0.0
00:20 7.7 93.9 1009.4 0.1 SE 0.2 WSW 0.0
00:25 7.6 94.0 1009.2 0.1 ESE 0.2 WSW 0.0
00:30 7.5 94.1 1009.2 0.1 WSW 0.2 WSW 0.0
00:35 7.4 94.1 1009.2 0.1 W 0.2 WSW 0.0
00:40 7.5 94.5 1009.2 0.1 SSW 0.2 WSW 0.0
00:45 7.6 94.6 1009.2 0.2 S 0.2 WSW 0.0
00:50 7.3 93.9 1009.2 0.3 W 0.3 W 0.0
00:55 7.3 93.7 1009.2 0.4 WNW 0.4 WNW 0.0
01:00 7.4 93.4 1009.2 0.2 S 0.4 WNW 0.0
01:05 7.4 93.3 1009.2 0.1 SSE 0.4 WNW 0.0
01:10 7.3 93.1 1009.2 0.4 WNW 0.4 WNW 0.0
01:15 7.3 93.0 1009.2 0.5 NNW 0.5 NNW 0.0
01:20 7.2 93.1 1009.2 0.2 NW 0.5 NNW 0.0
01:25 7.1 93.1 1009.2 0.1 NW 0.5 NNW 0.0
01:30 7.2 94.2 1009.2 0.1 SW 0.5 NNW 0.0
01:35 7.3 94.5 1009.2 0.0 SSW 0.5 NNW 0.0
01:40 7.2 94.5 1009.2 0.0 SSE 0.5 NNW 0.0
01:45 7.2 94.5 1009.2 0.0 SE 0.5 NNW 0.0
01:50 7.0 94.1 1009.2 0.1 SSE 0.5 NNW 0.0
01:55 6.9 94.0 1009.2 0.1 SSE 0.5 NNW 0.0
01:55 6.9 94.0 1009.2 0.1 SSE 0.5 NNW 0.0
01:55 6.9 94.0 1009.2 0.1 SSE 0.5 NNW 0.0
02:15 6.6 92.9 1009.2 1.1 NW 1.1 NW 0.0
02:20 6.5 92.7 1009.2 0.8 NW 1.1 NW 0.0
02:25 6.5 92.6 1009.2 0.7 NW 1.1 NW 0.0
02:30 6.5 92.8 1009.2 0.9 NW 1.1 NW 0.0
02:35 6.5 92.8 1009.2 1.0 NW 1.1 NW 0.0
02:40 6.6 92.8 1009.2 1.2 NW 1.2 NW 0.0
02:45 6.6 92.8 1009.2 1.3 NW 1.3 NW 0.0
02:50 6.7 93.5 1009.2 0.6 NW 1.3 NW 0.0
02:55 6.7 93.7 1009.2 0.5 NW 1.3 NW 0.0
03:00 6.7 93.1 1009.2 0.7 NW 1.3 NW 0.0
03:05 6.7 93.0 1009.2 0.7 NW 1.3 NW 0.0
03:10 6.5 92.7 1009.2 0.5 NW 1.3 NW 0.0
03:15 6.4 92.6 1009.2 0.4 NNW 1.3 NW 0.0
03:20 6.3 93.0 1009.2 0.3 NW 1.3 NW 0.0
03:25 6.3 93.1 1009.2 0.3 NW 1.3 NW 0.0
03:30 6.2 93.0 1009.2 0.5 NNW 1.3 NW 0.0
03:35 6.2 93.0 1009.2 0.5 NNW 1.3 NW 0.0
03:40 6.1 93.1 1009.2 0.2 SE 1.3 NW 0.0
03:45 6.0 93.1 1009.2 0.1 E 1.3 NW 0.0
03:50 6.0 93.4 1009.2 0.6 WSW 1.3 NW 0.0
03:55 6.0 93.5 1009.2 0.7 WNW 1.3 NW 0.0
04:00 6.1 93.2 1009.2 0.3 WNW 1.3 NW 0.0
04:05 6.1 93.1 1009.2 0.1 WNW 1.3 NW 0.0
04:10 6.0 93.1 1009.2 0.1 SSE 1.3 NW 0.0
04:15 6.0 93.1 1009.2 0.1 ENE 1.3 NW 0.0
04:20 6.0 93.8 1009.2 0.2 ESE 1.3 NW 0.0
04:25 6.0 94.0 1009.2 0.2 SE 1.3 NW 0.0
04:30 6.2 94.2 1009.2 0.1 WSW 1.3 NW 0.0
04:35 6.3 94.2 1009.2 0.0 WNW 1.3 NW 0.0
04:40 6.3 93.4 1009.2 0.7 NW 1.3 NW 0.0
04:45 6.3 93.2 1009.2 0.9 NW 1.3 NW 0.0
04:50 6.3 92.0 1009.2 1.5 NW 1.5 NW 0.0
04:55 6.3 91.4 1009.2 1.8 NW 1.8 NW 0.0
05:00 6.4 90.9 1009.2 2.3 NW 2.3 NW 0.0
05:05 6.4 90.7 1009.2 2.4 NW 2.4 NW 0.0
05:10 6.4 90.6 1009.2 2.4 NW 2.4 NW 0.0
05:15 0.0 90.5 1009.2 2.5 NW 2.5 NW 0.0
05:20 6.3 90.4 1009.2 1.7 NW 2.5 NW 0.0
05:25 6.3 90.4 1009.2 1.5 NW 2.5 NW 0.0
05:30 6.3 90.5 1009.2 1.6 WNW 2.5 NW 0.0
05:35 6.2 90.5 1009.2 1.6 WNW 2.5 NW 0.0
05:40 6.3 90.3 1010.0 0.6 WNW 2.5 NW 0.0
05:45 6.3 90.3 1010.2 0.3 WNW 2.5 NW 0.0
05:50 6.4 90.2 1010.2 0.1 S 2.5 NW 0.0
05:55 6.4 90.2 1010.2 0.1 SE 2.5 NW 0.0
05:55 6.4 90.2 1010.2 0.1 SE 2.5 NW 0.0
06:00 6.6 90.8 1010.2 0.1 NE 2.5 NW 0.0
06:10 6.8 89.8 1010.2 0.1 S 2.5 NW 0.0
06:15 6.8 89.2 1010.2 0.0 W 2.5 NW 0.0
06:20 6.8 89.0 1010.2 0.1 ESE 2.5 NW 0.0
06:25 6.8 88.9 1010.2 0.1 E 2.5 NW 0.0
06:30 6.8 88.6 1010.2 0.2 SW 2.5 NW 0.0
06:35 6.8 88.5 1010.2 0.3 WNW 2.5 NW 0.0
06:40 6.9 89.3 1010.2 0.2 NW 2.5 NW 0.0
06:45 6.9 89.5 1010.2 0.1 NNW 2.5 NW 0.0
06:50 7.2 90.4 1010.2 0.2 SE 2.5 NW 0.0
06:55 7.3 90.8 1010.2 0.2 NNE 2.5 NW 0.0
07:00 7.5 88.8 1010.2 0.2 WNW 2.5 NW 0.0
07:05 7.6 88.3 1010.2 0.2 N 2.5 NW 0.0
07:10 7.7 87.7 1010.2 0.2 SE 2.5 NW 0.0
07:15 7.8 87.4 1010.2 0.2 N 2.5 NW 0.0
07:20 8.1 86.0 1010.2 0.1 W 2.5 NW 0.0
07:25 8.1 85.6 1010.2 0.1 NNW 2.5 NW 0.0
07:30 8.2 84.8 1010.2 0.1 NNW 2.5 NW 0.0
07:35 8.3 84.4 1010.2 0.0 NW 2.5 NW 0.0
07:40 8.5 83.9 1010.2 0.1 SW 2.5 NW 0.0
07:45 8.6 83.7 1010.2 0.1 S 2.5 NW 0.0
Máxima 8.6 94.6 1010.2 2.5 NW 2.5 NW 0.0
Mínima 0.0 83.7 1009.2
Total 0.0